Time;durP1;ratioP1;P1;durP2;ratioP2;P2;SDS_P1;SDS_P2;PMS_P1;PMS_P2;Temp;Humidity;BMP_temperature;BMP_pressure;BME280_temperature;BME280_humidity;BME280_pressure;Samples;Min_cycle;Max_cycle;Signal;HPM_P1;HPM_P2
2020/12/31 00:01:25;;;;;;;5.30;4.17;;;;;;;;;;5031516;28;20468;-61
2020/12/31 00:03:51;;;;;;;4.33;3.93;;;;;;;;;;5031196;28;20248;-61
2020/12/31 00:06:17;;;;;;;5.70;4.20;;;;;;;;;;5033060;28;20510;-61
2020/12/31 00:08:43;;;;;;;4.27;3.87;;;;;;;;;;5029983;28;20467;-63
2020/12/31 00:11:10;;;;;;;6.70;4.70;;;;;;;;;;5035229;28;20437;-60
2020/12/31 00:13:36;;;;;;;4.83;3.87;;;;;;;;;;5040895;28;20428;-59
2020/12/31 00:16:03;;;;;;;5.60;3.97;;;;;;;;;;5033253;28;20196;-63
2020/12/31 00:18:29;;;;;;;6.70;4.10;;;;;;;;;;5049005;28;20425;-62
2020/12/31 00:20:55;;;;;;;5.70;4.40;;;;;;;;;;5038562;28;20439;-60
2020/12/31 00:23:21;;;;;;;5.10;3.97;;;;;;;;;;5035691;28;20204;-61
2020/12/31 00:25:51;;;;;;;4.30;3.67;;;;;;;;;;5041187;28;20241;-61
2020/12/31 00:28:18;;;;;;;5.40;4.67;;;;;;;;;;5035137;28;20182;-60
2020/12/31 00:30:44;;;;;;;6.27;4.50;;;;;;;;;;5038958;28;20440;-60
2020/12/31 00:33:12;;;;;;;4.47;4.07;;;;;;;;;;5044291;28;20428;-60
2020/12/31 00:35:38;;;;;;;6.03;4.30;;;;;;;;;;5042230;28;20435;-60
2020/12/31 00:38:04;;;;;;;4.80;3.90;;;;;;;;;;5047289;28;20713;-60
2020/12/31 00:40:30;;;;;;;5.23;4.20;;;;;;;;;;5044640;28;20185;-61
2020/12/31 00:42:56;;;;;;;5.43;4.23;;;;;;;;;;5028350;28;20447;-60
2020/12/31 00:45:22;;;;;;;4.60;4.10;;;;;;;;;;5037685;28;20247;-60
2020/12/31 00:47:48;;;;;;;4.53;3.87;;;;;;;;;;5039286;28;20424;-60
2020/12/31 00:50:14;;;;;;;5.83;4.17;;;;;;;;;;5042591;28;20200;-63
2020/12/31 00:52:40;;;;;;;6.00;4.50;;;;;;;;;;5030733;28;20178;-59
2020/12/31 00:55:06;;;;;;;4.13;3.63;;;;;;;;;;5034772;28;20427;-61
2020/12/31 00:57:32;;;;;;;4.80;4.03;;;;;;;;;;5037388;28;20442;-59
2020/12/31 00:59:58;;;;;;;5.63;4.50;;;;;;;;;;5042873;28;20601;-59
2020/12/31 01:02:24;;;;;;;5.20;4.27;;;;;;;;;;5042361;28;20232;-63
2020/12/31 01:04:50;;;;;;;5.30;4.13;;;;;;;;;;5065397;28;20529;-60
2020/12/31 01:07:17;;;;;;;5.60;4.20;;;;;;;;;;5052463;28;20548;-60
2020/12/31 01:09:43;;;;;;;4.83;4.07;;;;;;;;;;5067219;28;20426;-60
2020/12/31 01:12:12;;;;;;;5.83;4.57;;;;;;;;;;5034137;28;20424;-60
2020/12/31 01:14:38;;;;;;;4.47;3.90;;;;;;;;;;5051610;28;20265;-57
2020/12/31 01:17:04;;;;;;;5.23;4.43;;;;;;;;;;5055337;28;20462;-61
2020/12/31 01:19:31;;;;;;;4.27;3.87;;;;;;;;;;5050944;28;20648;-57
2020/12/31 01:21:57;;;;;;;4.57;4.00;;;;;;;;;;5069782;28;20188;-57
2020/12/31 01:24:23;;;;;;;6.27;4.20;;;;;;;;;;5064390;28;20867;-57
2020/12/31 01:26:49;;;;;;;4.30;3.90;;;;;;;;;;5031877;28;20972;-57
2020/12/31 01:29:15;;;;;;;5.23;3.97;;;;;;;;;;5048544;28;20234;-60
2020/12/31 01:31:41;;;;;;;4.13;3.73;;;;;;;;;;5041087;28;20295;-58
2020/12/31 01:34:07;;;;;;;5.67;4.17;;;;;;;;;;5067797;28;20701;-57
2020/12/31 01:36:34;;;;;;;4.80;4.40;;;;;;;;;;5063699;28;20577;-57
2020/12/31 01:39:01;;;;;;;4.93;4.43;;;;;;;;;;5067599;28;20282;-57
2020/12/31 01:41:27;;;;;;;5.20;4.30;;;;;;;;;;5056382;28;20419;-57
2020/12/31 01:44:03;;;;;;;4.90;4.00;;;;;;;;;;5051491;28;20419;-58
2020/12/31 01:46:32;;;;;;;5.00;4.47;;;;;;;;;;5039261;28;20462;-57
2020/12/31 01:48:58;;;;;;;6.50;4.40;;;;;;;;;;5051961;28;20411;-58
2020/12/31 01:51:24;;;;;;;4.67;4.17;;;;;;;;;;5067142;28;20824;-57
2020/12/31 01:53:56;;;;;;;5.63;4.60;;;;;;;;;;5052629;28;21212;-58
2020/12/31 01:56:23;;;;;;;6.23;4.30;;;;;;;;;;5059407;28;20438;-58
2020/12/31 01:58:49;;;;;;;5.50;4.40;;;;;;;;;;5042617;28;20429;-57
2020/12/31 02:01:15;;;;;;;4.80;4.30;;;;;;;;;;5059559;28;20439;-60
2020/12/31 02:03:41;;;;;;;5.27;4.57;;;;;;;;;;5053318;28;20438;-57
2020/12/31 02:06:07;;;;;;;7.10;4.63;;;;;;;;;;5048278;28;20466;-57
2020/12/31 02:08:33;;;;;;;5.87;4.67;;;;;;;;;;5035783;28;20208;-58
2020/12/31 02:10:59;;;;;;;5.37;4.67;;;;;;;;;;5036343;28;20181;-57
2020/12/31 02:13:25;;;;;;;5.67;5.07;;;;;;;;;;5067513;28;20641;-60
2020/12/31 02:15:51;;;;;;;6.83;5.10;;;;;;;;;;5056283;28;20462;-58
2020/12/31 02:18:17;;;;;;;6.57;5.20;;;;;;;;;;5069300;28;20202;-57
2020/12/31 02:20:43;;;;;;;7.13;5.00;;;;;;;;;;5044449;28;20541;-57
2020/12/31 02:23:09;;;;;;;6.50;4.90;;;;;;;;;;5055224;28;20230;-57
2020/12/31 02:25:35;;;;;;;6.77;5.00;;;;;;;;;;5060486;28;20205;-58
2020/12/31 02:28:01;;;;;;;6.80;5.47;;;;;;;;;;5053065;28;20788;-57
2020/12/31 02:30:27;;;;;;;5.73;5.03;;;;;;;;;;5053478;28;20722;-58
2020/12/31 02:32:53;;;;;;;6.27;5.30;;;;;;;;;;5037067;28;20516;-57
2020/12/31 02:35:19;;;;;;;7.33;5.53;;;;;;;;;;5059698;28;20470;-57
2020/12/31 02:37:45;;;;;;;5.40;4.90;;;;;;;;;;5064734;28;20181;-58
2020/12/31 02:40:11;;;;;;;6.40;5.33;;;;;;;;;;5051601;28;20198;-58
2020/12/31 02:42:37;;;;;;;8.03;5.40;;;;;;;;;;5053377;28;20540;-57
2020/12/31 02:45:04;;;;;;;6.03;5.43;;;;;;;;;;5058711;28;20196;-57
2020/12/31 02:47:35;;;;;;;6.40;5.80;;;;;;;;;;5069442;28;20419;-58
2020/12/31 02:50:01;;;;;;;8.63;5.70;;;;;;;;;;5058795;28;20505;-58
2020/12/31 02:52:27;;;;;;;6.90;6.10;;;;;;;;;;5034487;28;20478;-58
2020/12/31 02:54:53;;;;;;;6.50;4.87;;;;;;;;;;5054892;28;20576;-57
2020/12/31 02:57:19;;;;;;;6.43;5.50;;;;;;;;;;5053635;28;20189;-57
2020/12/31 02:59:45;;;;;;;5.97;5.40;;;;;;;;;;5053475;28;20999;-57
2020/12/31 03:02:11;;;;;;;6.47;5.87;;;;;;;;;;5059515;28;20225;-58
2020/12/31 03:04:37;;;;;;;6.70;6.03;;;;;;;;;;5053110;28;20208;-57
2020/12/31 03:07:03;;;;;;;8.97;5.87;;;;;;;;;;5061253;28;20264;-57
2020/12/31 03:09:29;;;;;;;10.03;5.80;;;;;;;;;;5034961;28;20208;-57
2020/12/31 03:11:55;;;;;;;6.73;5.70;;;;;;;;;;5053192;28;20582;-57
2020/12/31 03:14:21;;;;;;;8.20;6.17;;;;;;;;;;5052765;28;20223;-57
2020/12/31 03:16:47;;;;;;;9.43;6.20;;;;;;;;;;5071638;28;20602;-57
2020/12/31 03:19:13;;;;;;;5.80;5.20;;;;;;;;;;5055330;28;20216;-57
2020/12/31 03:21:39;;;;;;;7.20;5.67;;;;;;;;;;5050215;28;20220;-57
2020/12/31 03:24:05;;;;;;;6.20;5.60;;;;;;;;;;5039333;28;20640;-57
2020/12/31 03:26:31;;;;;;;6.50;5.80;;;;;;;;;;5063847;28;20236;-59
2020/12/31 03:28:57;;;;;;;7.20;5.80;;;;;;;;;;5034705;28;20703;-58
2020/12/31 03:31:23;;;;;;;6.73;5.33;;;;;;;;;;5067205;28;20205;-57
2020/12/31 03:33:49;;;;;;;5.90;5.33;;;;;;;;;;5053932;28;20644;-58
2020/12/31 03:36:15;;;;;;;5.13;4.63;;;;;;;;;;5053812;28;20424;-58
2020/12/31 03:38:41;;;;;;;6.40;5.07;;;;;;;;;;5065013;28;20181;-57
2020/12/31 03:41:07;;;;;;;9.37;5.03;;;;;;;;;;5057844;28;20628;-58
2020/12/31 03:43:33;;;;;;;5.50;4.90;;;;;;;;;;5052019;28;20432;-58
2020/12/31 03:45:59;;;;;;;5.17;4.47;;;;;;;;;;5064943;28;20208;-57
2020/12/31 03:48:25;;;;;;;6.97;5.23;;;;;;;;;;5036693;28;20189;-57
2020/12/31 03:50:51;;;;;;;6.50;4.97;;;;;;;;;;5063822;28;20600;-57
2020/12/31 03:53:17;;;;;;;7.00;5.57;;;;;;;;;;5070175;28;20219;-58
2020/12/31 03:55:43;;;;;;;5.90;4.73;;;;;;;;;;5058349;28;20268;-58
2020/12/31 03:58:09;;;;;;;5.77;5.20;;;;;;;;;;5051775;28;20702;-57
2020/12/31 04:00:34;;;;;;;5.43;4.93;;;;;;;;;;5062911;28;20185;-57
2020/12/31 04:03:00;;;;;;;7.73;4.43;;;;;;;;;;5055552;28;20738;-57
2020/12/31 04:05:26;;;;;;;4.97;4.43;;;;;;;;;;5059249;28;20208;-60
2020/12/31 04:07:52;;;;;;;5.13;4.63;;;;;;;;;;5040032;28;20177;-57
2020/12/31 04:10:18;;;;;;;6.63;4.70;;;;;;;;;;5052861;28;20181;-58
2020/12/31 04:12:44;;;;;;;4.93;4.43;;;;;;;;;;5070062;28;20434;-57
2020/12/31 04:15:10;;;;;;;5.60;5.07;;;;;;;;;;5065828;28;20525;-57
2020/12/31 04:17:37;;;;;;;5.93;4.77;;;;;;;;;;5042943;28;20431;-57
2020/12/31 04:20:04;;;;;;;7.80;4.97;;;;;;;;;;5056557;28;20222;-57
2020/12/31 04:22:30;;;;;;;5.60;4.80;;;;;;;;;;5070242;28;20469;-57
2020/12/31 04:24:56;;;;;;;5.13;4.63;;;;;;;;;;5069320;28;20454;-58
2020/12/31 04:27:22;;;;;;;5.53;4.50;;;;;;;;;;5046970;28;20571;-57
2020/12/31 04:29:48;;;;;;;4.20;3.67;;;;;;;;;;5065459;28;20192;-57
2020/12/31 04:32:14;;;;;;;4.97;4.20;;;;;;;;;;5040287;28;20239;-57
2020/12/31 04:34:40;;;;;;;4.53;4.13;;;;;;;;;;5051646;28;20419;-57
2020/12/31 04:37:06;;;;;;;4.97;4.47;;;;;;;;;;5052621;28;20239;-57
2020/12/31 04:39:32;;;;;;;5.97;4.60;;;;;;;;;;5061866;28;20435;-58
2020/12/31 04:41:59;;;;;;;5.03;3.83;;;;;;;;;;5054172;28;20437;-57
2020/12/31 04:44:25;;;;;;;4.90;3.77;;;;;;;;;;5051321;28;20181;-57
2020/12/31 04:46:54;;;;;;;3.93;3.53;;;;;;;;;;5053929;28;20930;-57
2020/12/31 04:49:21;;;;;;;4.97;4.20;;;;;;;;;;5058971;28;20906;-57
2020/12/31 04:51:48;;;;;;;5.93;4.30;;;;;;;;;;5056020;28;21454;-57
2020/12/31 04:54:14;;;;;;;4.67;3.87;;;;;;;;;;5061010;28;21038;-58
2020/12/31 04:56:40;;;;;;;4.53;3.63;;;;;;;;;;5058611;28;20424;-59
2020/12/31 04:59:06;;;;;;;5.03;3.73;;;;;;;;;;5052581;28;20411;-57
2020/12/31 05:01:33;;;;;;;3.93;3.40;;;;;;;;;;5068724;28;20952;-58
2020/12/31 05:04:05;;;;;;;4.43;3.50;;;;;;;;;;5071030;28;20391;-58
2020/12/31 05:06:35;;;;;;;5.07;4.10;;;;;;;;;;5036643;28;20455;-57
2020/12/31 05:09:12;;;;;;;4.43;3.97;;;;;;;;;;5050206;28;20411;-58
2020/12/31 05:11:42;;;;;;;5.07;3.87;;;;;;;;;;5035195;28;20267;-57
2020/12/31 05:14:09;;;;;;;5.00;3.97;;;;;;;;;;5050888;28;20502;-57
2020/12/31 05:16:35;;;;;;;4.90;3.93;;;;;;;;;;5050485;28;20483;-58
2020/12/31 05:19:01;;;;;;;3.97;3.33;;;;;;;;;;5050574;28;21051;-57
2020/12/31 05:21:27;;;;;;;3.83;3.50;;;;;;;;;;5056931;28;20263;-60
2020/12/31 05:23:53;;;;;;;4.00;3.60;;;;;;;;;;5050382;28;20188;-58
2020/12/31 05:26:29;;;;;;;4.67;4.17;;;;;;;;;;5042230;28;20208;-58
2020/12/31 05:28:55;;;;;;;4.37;3.97;;;;;;;;;;5066220;28;20639;-58
2020/12/31 05:31:21;;;;;;;4.77;4.20;;;;;;;;;;5063491;28;20454;-58
2020/12/31 05:33:47;;;;;;;4.10;3.70;;;;;;;;;;5050981;28;20469;-58
2020/12/31 05:36:24;;;;;;;4.50;3.90;;;;;;;;;;5051478;28;20470;-58
2020/12/31 05:39:02;;;;;;;5.30;4.80;;;;;;;;;;5049996;28;20862;-58
2020/12/31 05:41:28;;;;;;;5.30;4.40;;;;;;;;;;5050259;28;20549;-60
2020/12/31 05:43:58;;;;;;;5.50;5.00;;;;;;;;;;5051071;28;20920;-58
2020/12/31 05:46:25;;;;;;;5.70;4.40;;;;;;;;;;5065590;28;20546;-57
2020/12/31 05:49:05;;;;;;;4.40;3.93;;;;;;;;;;5047219;28;20447;-58
2020/12/31 05:51:31;;;;;;;6.00;4.67;;;;;;;;;;5067551;28;20247;-57
2020/12/31 05:54:24;;;;;;;5.00;4.50;;;;;;;;;;5069737;28;20410;-57
2020/12/31 05:56:52;;;;;;;6.43;5.30;;;;;;;;;;5058285;28;20469;-58
2020/12/31 05:59:22;;;;;;;5.50;4.90;;;;;;;;;;5032324;28;20436;-60
2020/12/31 06:01:58;;;;;;;5.43;4.90;;;;;;;;;;5050155;28;20505;-58
2020/12/31 06:04:43;;;;;;;6.10;4.83;;;;;;;;;;5050952;28;20431;-57
2020/12/31 06:07:14;;;;;;;5.53;4.93;;;;;;;;;;5050131;28;20404;-58
2020/12/31 06:09:44;;;;;;;5.97;5.07;;;;;;;;;;5034276;28;20422;-58
2020/12/31 06:12:13;;;;;;;5.47;4.73;;;;;;;;;;5050225;28;20887;-58
2020/12/31 06:14:41;;;;;;;6.67;5.67;;;;;;;;;;5050984;28;20485;-57
2020/12/31 06:17:07;;;;;;;5.43;4.80;;;;;;;;;;5050209;28;20428;-58
2020/12/31 06:19:39;;;;;;;5.23;4.73;;;;;;;;;;5050915;28;20430;-60
2020/12/31 06:22:08;;;;;;;5.67;5.00;;;;;;;;;;5055733;28;20429;-58
2020/12/31 06:24:36;;;;;;;6.13;5.47;;;;;;;;;;5063896;28;20446;-58
2020/12/31 06:27:09;;;;;;;5.90;5.03;;;;;;;;;;5055298;28;20765;-58
2020/12/31 06:29:41;;;;;;;5.07;4.57;;;;;;;;;;5031654;28;20826;-59
2020/12/31 06:32:11;;;;;;;5.53;4.90;;;;;;;;;;5032709;28;20431;-58
2020/12/31 06:34:37;;;;;;;6.00;5.10;;;;;;;;;;5056066;28;20415;-58
2020/12/31 06:37:08;;;;;;;5.03;4.40;;;;;;;;;;5054881;28;20420;-58
2020/12/31 06:39:34;;;;;;;6.47;5.10;;;;;;;;;;5053917;28;20431;-58
2020/12/31 06:42:00;;;;;;;6.13;5.10;;;;;;;;;;5063543;28;20180;-58
2020/12/31 06:44:29;;;;;;;6.27;5.67;;;;;;;;;;5053551;28;20415;-58
2020/12/31 06:46:55;;;;;;;5.60;4.73;;;;;;;;;;5053554;28;20177;-58
2020/12/31 06:49:21;;;;;;;7.30;5.10;;;;;;;;;;5052865;28;20396;-58
2020/12/31 06:51:47;;;;;;;7.77;4.87;;;;;;;;;;5035136;28;20412;-58
2020/12/31 06:54:13;;;;;;;6.20;5.50;;;;;;;;;;5034645;28;20185;-58
2020/12/31 06:56:45;;;;;;;7.70;5.30;;;;;;;;;;5048558;28;20427;-60
2020/12/31 06:59:28;;;;;;;7.77;6.20;;;;;;;;;;5047641;28;20420;-58
2020/12/31 07:01:55;;;;;;;6.67;4.73;;;;;;;;;;5059877;28;20467;-59
2020/12/31 07:04:34;;;;;;;5.10;4.60;;;;;;;;;;5037411;28;20422;-58
2020/12/31 07:07:01;;;;;;;5.80;4.33;;;;;;;;;;5053114;28;20848;-58
2020/12/31 07:09:37;;;;;;;5.20;4.70;;;;;;;;;;5053139;28;20453;-58
2020/12/31 07:12:07;;;;;;;5.23;4.70;;;;;;;;;;5058954;28;20954;-58
2020/12/31 07:14:34;;;;;;;5.23;4.47;;;;;;;;;;5049412;28;20437;-58
2020/12/31 07:17:05;;;;;;;5.60;4.83;;;;;;;;;;5073624;28;20455;-58
2020/12/31 07:19:44;;;;;;;6.13;4.60;;;;;;;;;;5065432;28;20978;-57
2020/12/31 07:22:10;;;;;;;5.00;4.50;;;;;;;;;;5061878;28;20457;-58
2020/12/31 07:24:45;;;;;;;5.00;4.50;;;;;;;;;;5044839;28;20427;-59
2020/12/31 07:27:17;;;;;;;4.33;3.93;;;;;;;;;;5065267;28;20189;-58
2020/12/31 07:29:55;;;;;;;4.30;3.90;;;;;;;;;;5059640;28;20416;-58
2020/12/31 07:32:41;;;;;;;4.57;4.00;;;;;;;;;;5070958;28;20203;-58
2020/12/31 07:35:33;;;;;;;5.30;3.87;;;;;;;;;;5056125;28;20800;-58
2020/12/31 07:37:59;;;;;;;4.10;3.70;;;;;;;;;;5049808;28;20463;-58
2020/12/31 07:40:33;;;;;;;4.07;3.37;;;;;;;;;;5053540;28;20420;-58
2020/12/31 07:42:59;;;;;;;3.97;3.57;;;;;;;;;;5052015;28;20197;-59
2020/12/31 07:45:26;;;;;;;3.97;3.10;;;;;;;;;;5056119;28;20451;-60
2020/12/31 07:47:53;;;;;;;3.77;3.43;;;;;;;;;;5037360;28;20424;-59
2020/12/31 07:50:20;;;;;;;3.93;3.53;;;;;;;;;;5063592;28;21421;-61
2020/12/31 07:52:46;;;;;;;4.00;3.60;;;;;;;;;;5058889;28;21293;-58
2020/12/31 07:55:12;;;;;;;4.03;3.50;;;;;;;;;;5056721;28;20422;-58
2020/12/31 07:57:39;;;;;;;4.10;3.70;;;;;;;;;;5063912;28;20472;-60
2020/12/31 08:00:05;;;;;;;4.13;3.73;;;;;;;;;;5041723;28;20436;-58
2020/12/31 08:02:32;;;;;;;4.43;3.70;;;;;;;;;;5057275;28;20473;-58
2020/12/31 08:04:58;;;;;;;4.03;3.63;;;;;;;;;;5068691;28;21120;-58
2020/12/31 08:07:24;;;;;;;3.80;3.37;;;;;;;;;;5067867;28;20415;-58
2020/12/31 08:09:51;;;;;;;3.73;3.43;;;;;;;;;;5046227;28;20957;-58
2020/12/31 08:12:17;;;;;;;4.40;3.57;;;;;;;;;;5042633;28;20529;-57
2020/12/31 08:14:44;;;;;;;3.90;3.50;;;;;;;;;;5061057;28;20431;-58
2020/12/31 08:17:10;;;;;;;3.87;3.57;;;;;;;;;;5069338;28;20414;-59
2020/12/31 08:19:40;;;;;;;4.87;3.70;;;;;;;;;;5058900;28;20812;-58
2020/12/31 08:22:11;;;;;;;4.33;3.33;;;;;;;;;;5058327;28;20498;-57
2020/12/31 08:24:39;;;;;;;5.83;3.97;;;;;;;;;;5058952;28;20469;-57
2020/12/31 08:27:05;;;;;;;3.90;3.50;;;;;;;;;;5060301;28;20492;-60
2020/12/31 08:29:35;;;;;;;3.93;3.53;;;;;;;;;;5044452;28;20527;-58
2020/12/31 08:32:07;;;;;;;4.13;3.73;;;;;;;;;;5050278;28;20427;-58
2020/12/31 08:34:36;;;;;;;3.43;3.13;;;;;;;;;;5070203;28;20449;-57
2020/12/31 08:37:02;;;;;;;3.60;3.17;;;;;;;;;;5054226;28;20286;-58
2020/12/31 08:39:29;;;;;;;3.33;3.03;;;;;;;;;;5051709;28;21026;-59
2020/12/31 08:41:59;;;;;;;3.63;3.30;;;;;;;;;;5055162;28;20545;-58
2020/12/31 08:44:26;;;;;;;4.77;3.13;;;;;;;;;;5054527;28;20493;-58
2020/12/31 08:46:52;;;;;;;3.63;3.27;;;;;;;;;;5058751;28;20441;-58
2020/12/31 08:49:28;;;;;;;4.17;3.00;;;;;;;;;;5058030;28;20427;-58
2020/12/31 08:51:54;;;;;;;4.43;3.90;;;;;;;;;;5056966;28;20458;-58
2020/12/31 08:54:20;;;;;;;3.53;3.23;;;;;;;;;;5058926;28;20424;-59
2020/12/31 08:56:46;;;;;;;3.47;3.10;;;;;;;;;;5054780;28;20431;-57
2020/12/31 08:59:13;;;;;;;5.50;3.37;;;;;;;;;;5046133;28;21077;-59
2020/12/31 09:01:41;;;;;;;4.40;3.67;;;;;;;;;;5048827;28;20458;-57
2020/12/31 09:04:08;;;;;;;4.43;3.23;;;;;;;;;;5066926;28;20420;-58
2020/12/31 09:06:34;;;;;;;4.70;3.80;;;;;;;;;;5056019;28;20454;-58
2020/12/31 09:09:00;;;;;;;3.57;3.27;;;;;;;;;;5065826;28;20419;-58
2020/12/31 09:11:27;;;;;;;3.90;3.27;;;;;;;;;;5062028;28;20458;-57
2020/12/31 09:13:53;;;;;;;4.87;3.53;;;;;;;;;;5063398;28;20423;-57
2020/12/31 09:16:20;;;;;;;3.80;3.47;;;;;;;;;;5038365;28;20423;-58
2020/12/31 09:18:46;;;;;;;4.63;3.90;;;;;;;;;;5058735;28;20531;-58
2020/12/31 09:21:12;;;;;;;4.60;3.57;;;;;;;;;;5032964;28;20491;-57
2020/12/31 09:23:39;;;;;;;5.93;4.53;;;;;;;;;;5051547;28;20462;-57
2020/12/31 09:26:05;;;;;;;3.93;3.53;;;;;;;;;;5051997;28;20474;-57
2020/12/31 09:28:31;;;;;;;5.60;3.60;;;;;;;;;;5054666;28;20439;-58
2020/12/31 09:30:58;;;;;;;3.60;3.30;;;;;;;;;;5056666;28;20968;-58
2020/12/31 09:33:25;;;;;;;4.10;3.57;;;;;;;;;;5066090;28;20415;-57
2020/12/31 09:35:51;;;;;;;4.50;3.80;;;;;;;;;;5051033;28;20881;-57
2020/12/31 09:38:17;;;;;;;4.50;4.10;;;;;;;;;;5050883;28;20184;-58
2020/12/31 09:40:44;;;;;;;4.60;4.13;;;;;;;;;;5056127;28;20427;-58
2020/12/31 09:43:10;;;;;;;4.63;3.97;;;;;;;;;;5038089;28;20485;-57
2020/12/31 09:45:38;;;;;;;4.53;4.13;;;;;;;;;;5049214;28;20447;-58
2020/12/31 09:48:04;;;;;;;5.50;4.90;;;;;;;;;;5070047;28;20473;-58
2020/12/31 09:50:30;;;;;;;4.67;4.20;;;;;;;;;;5052659;28;20419;-60
2020/12/31 09:52:56;;;;;;;6.10;4.23;;;;;;;;;;5065940;28;20423;-58
2020/12/31 09:55:23;;;;;;;5.97;4.57;;;;;;;;;;5069089;28;20423;-57
2020/12/31 09:57:49;;;;;;;5.17;4.40;;;;;;;;;;5068900;28;20415;-60
2020/12/31 10:00:15;;;;;;;9.03;5.00;;;;;;;;;;5066054;28;20422;-57
2020/12/31 10:02:41;;;;;;;5.90;4.83;;;;;;;;;;5061734;28;20883;-57
2020/12/31 10:05:07;;;;;;;7.77;5.40;;;;;;;;;;5050419;28;20220;-61
2020/12/31 10:07:33;;;;;;;5.33;4.83;;;;;;;;;;5062493;28;20952;-59
2020/12/31 10:10:00;;;;;;;5.17;4.67;;;;;;;;;;5053206;28;20882;-60
2020/12/31 10:12:26;;;;;;;4.90;4.37;;;;;;;;;;5036552;28;20419;-59
2020/12/31 10:14:52;;;;;;;5.83;4.77;;;;;;;;;;5043265;28;20446;-60
2020/12/31 10:17:18;;;;;;;6.53;5.07;;;;;;;;;;5059854;28;20442;-58
2020/12/31 10:19:44;;;;;;;4.83;4.33;;;;;;;;;;5054929;28;20400;-57
2020/12/31 10:22:10;;;;;;;5.03;4.53;;;;;;;;;;5051940;28;20427;-57
2020/12/31 10:24:36;;;;;;;5.33;4.83;;;;;;;;;;5068936;28;20453;-59
2020/12/31 10:27:02;;;;;;;5.37;4.60;;;;;;;;;;5054993;28;20435;-57
2020/12/31 10:29:28;;;;;;;5.93;5.00;;;;;;;;;;5056820;28;20407;-60
2020/12/31 10:31:55;;;;;;;6.50;5.03;;;;;;;;;;5054037;28;20403;-57
2020/12/31 10:34:25;;;;;;;5.60;5.00;;;;;;;;;;5064614;28;20781;-58
2020/12/31 10:36:52;;;;;;;5.37;4.77;;;;;;;;;;5053371;28;20426;-58
2020/12/31 10:39:18;;;;;;;5.60;4.97;;;;;;;;;;5063155;28;20418;-57
2020/12/31 10:41:45;;;;;;;5.93;5.33;;;;;;;;;;5062780;28;20458;-58
2020/12/31 10:44:11;;;;;;;5.87;4.63;;;;;;;;;;5063011;28;20426;-59
2020/12/31 10:46:37;;;;;;;5.43;4.80;;;;;;;;;;5064388;28;20461;-58
2020/12/31 10:49:03;;;;;;;4.87;4.37;;;;;;;;;;5064105;28;20231;-60
2020/12/31 10:51:32;;;;;;;5.97;5.23;;;;;;;;;;5054029;28;20933;-58
2020/12/31 10:53:58;;;;;;;5.77;5.17;;;;;;;;;;5048452;28;20423;-58
2020/12/31 10:56:27;;;;;;;6.37;5.53;;;;;;;;;;5061438;28;20973;-58
2020/12/31 10:58:53;;;;;;;5.73;4.90;;;;;;;;;;5063957;28;20191;-58
2020/12/31 11:01:19;;;;;;;5.97;4.93;;;;;;;;;;5063501;28;20509;-57
2020/12/31 11:03:45;;;;;;;5.53;5.03;;;;;;;;;;5067350;28;20196;-60
2020/12/31 11:06:22;;;;;;;6.20;4.83;;;;;;;;;;5046963;28;20894;-60
2020/12/31 11:08:48;;;;;;;6.13;4.87;;;;;;;;;;5046835;28;20509;-57
2020/12/31 11:11:21;;;;;;;5.70;5.07;;;;;;;;;;5040681;28;20412;-58
2020/12/31 11:13:47;;;;;;;6.50;5.67;;;;;;;;;;5053779;28;20449;-58
2020/12/31 11:16:14;;;;;;;5.90;5.30;;;;;;;;;;5055959;28;20503;-58
2020/12/31 11:18:40;;;;;;;5.60;5.00;;;;;;;;;;5058374;28;20484;-58
2020/12/31 11:21:06;;;;;;;6.23;4.80;;;;;;;;;;5069501;28;20425;-57
2020/12/31 11:23:33;;;;;;;5.57;4.97;;;;;;;;;;5041728;28;20411;-58
2020/12/31 11:25:59;;;;;;;5.43;4.93;;;;;;;;;;5071027;28;20454;-57
2020/12/31 11:28:25;;;;;;;5.03;4.53;;;;;;;;;;5056895;28;20420;-57
2020/12/31 11:30:51;;;;;;;5.83;4.30;;;;;;;;;;5067522;28;20449;-58
2020/12/31 11:33:17;;;;;;;5.87;4.93;;;;;;;;;;5062891;28;20445;-60
2020/12/31 11:35:43;;;;;;;5.10;4.60;;;;;;;;;;5053663;28;20427;-57
2020/12/31 11:38:10;;;;;;;5.67;4.47;;;;;;;;;;5051738;28;20422;-58
2020/12/31 11:40:36;;;;;;;6.20;4.77;;;;;;;;;;5059281;28;20464;-57
2020/12/31 11:43:02;;;;;;;5.33;4.83;;;;;;;;;;5066084;28;20418;-58
2020/12/31 11:45:28;;;;;;;6.20;5.07;;;;;;;;;;5045506;28;20303;-58
2020/12/31 11:47:54;;;;;;;5.87;5.23;;;;;;;;;;5060082;28;20418;-58
2020/12/31 11:50:20;;;;;;;5.77;5.13;;;;;;;;;;5039069;28;20465;-58
2020/12/31 11:52:47;;;;;;;5.90;5.40;;;;;;;;;;5068607;28;20185;-57
2020/12/31 11:55:13;;;;;;;6.57;5.40;;;;;;;;;;5071839;28;20180;-58
2020/12/31 11:57:39;;;;;;;5.33;4.83;;;;;;;;;;5061690;28;20486;-58
2020/12/31 12:00:05;;;;;;;6.70;4.93;;;;;;;;;;5066424;28;20851;-57
2020/12/31 12:02:31;;;;;;;6.27;5.50;;;;;;;;;;5068796;28;20498;-58
2020/12/31 12:04:57;;;;;;;5.53;5.03;;;;;;;;;;5037640;28;20547;-59
2020/12/31 12:07:24;;;;;;;6.83;5.17;;;;;;;;;;5054024;28;20797;-59
2020/12/31 12:09:50;;;;;;;5.97;5.10;;;;;;;;;;5068344;28;20417;-58
2020/12/31 12:12:16;;;;;;;5.87;5.27;;;;;;;;;;5061191;28;20420;-57
2020/12/31 12:14:42;;;;;;;5.30;4.77;;;;;;;;;;5056347;28;20183;-59
2020/12/31 12:17:08;;;;;;;5.83;4.83;;;;;;;;;;5041010;28;20831;-58
2020/12/31 12:19:34;;;;;;;5.70;5.10;;;;;;;;;;5069471;28;20181;-57
2020/12/31 12:22:00;;;;;;;5.53;5.00;;;;;;;;;;5046738;28;20418;-58
2020/12/31 12:24:26;;;;;;;6.70;5.33;;;;;;;;;;5059324;28;20861;-59
2020/12/31 12:26:52;;;;;;;5.40;4.87;;;;;;;;;;5091064;28;20998;-60
2020/12/31 12:29:18;;;;;;;8.40;4.93;;;;;;;;;;5072372;28;20740;-58
2020/12/31 12:31:44;;;;;;;5.27;4.77;;;;;;;;;;5034059;28;20439;-58
2020/12/31 12:34:11;;;;;;;5.27;4.50;;;;;;;;;;5039958;28;21075;-58
2020/12/31 12:36:37;;;;;;;5.77;5.17;;;;;;;;;;5044556;28;20420;-58
2020/12/31 12:39:07;;;;;;;5.20;4.80;;;;;;;;;;5064337;28;20477;-60
2020/12/31 12:41:33;;;;;;;5.20;4.73;;;;;;;;;;5057979;28;20996;-58
2020/12/31 12:43:59;;;;;;;5.43;4.93;;;;;;;;;;5060597;28;20459;-57
2020/12/31 12:46:25;;;;;;;5.10;4.50;;;;;;;;;;5070939;28;20967;-58
2020/12/31 12:48:51;;;;;;;4.30;3.90;;;;;;;;;;5054353;28;20434;-58
2020/12/31 12:51:17;;;;;;;5.13;4.63;;;;;;;;;;5065474;28;20173;-58
2020/12/31 12:53:43;;;;;;;5.70;4.97;;;;;;;;;;5063080;28;20607;-57
2020/12/31 12:56:13;;;;;;;5.20;4.70;;;;;;;;;;5067373;28;20927;-59
2020/12/31 12:58:39;;;;;;;5.07;4.57;;;;;;;;;;5050387;28;20470;-57
2020/12/31 13:01:05;;;;;;;5.03;4.53;;;;;;;;;;5064170;28;20430;-58
2020/12/31 13:03:31;;;;;;;5.43;4.93;;;;;;;;;;5057277;28;20454;-58
2020/12/31 13:05:57;;;;;;;5.03;4.60;;;;;;;;;;5066125;28;20466;-58
2020/12/31 13:08:25;;;;;;;5.53;5.03;;;;;;;;;;5059042;28;20176;-58
2020/12/31 13:10:51;;;;;;;5.47;4.97;;;;;;;;;;5062814;28;20411;-58
2020/12/31 13:13:17;;;;;;;5.70;5.00;;;;;;;;;;5038292;28;20427;-58
2020/12/31 13:15:43;;;;;;;5.40;4.90;;;;;;;;;;5064559;28;20426;-58
2020/12/31 13:18:10;;;;;;;5.73;4.90;;;;;;;;;;5055612;28;20829;-58
2020/12/31 13:20:36;;;;;;;5.53;4.80;;;;;;;;;;5036870;28;20426;-57
2020/12/31 13:23:02;;;;;;;5.33;4.83;;;;;;;;;;5054332;28;21329;-58
2020/12/31 13:25:28;;;;;;;5.23;4.73;;;;;;;;;;5035744;28;20525;-60
2020/12/31 13:27:54;;;;;;;5.00;4.50;;;;;;;;;;5050149;28;20891;-58
2020/12/31 13:30:20;;;;;;;5.10;4.60;;;;;;;;;;5057436;28;20204;-57
2020/12/31 13:32:47;;;;;;;5.20;4.50;;;;;;;;;;5050289;28;20423;-57
2020/12/31 13:35:13;;;;;;;5.30;4.80;;;;;;;;;;5055707;28;20778;-60
2020/12/31 13:37:40;;;;;;;5.07;4.57;;;;;;;;;;5058042;28;20871;-58
2020/12/31 13:40:06;;;;;;;4.33;3.93;;;;;;;;;;5051343;28;20774;-57
2020/12/31 13:42:33;;;;;;;4.57;4.17;;;;;;;;;;5064898;28;20943;-58
2020/12/31 13:44:59;;;;;;;4.47;4.07;;;;;;;;;;5058442;28;20442;-58
2020/12/31 13:47:26;;;;;;;5.27;4.50;;;;;;;;;;5062183;28;21002;-58
2020/12/31 13:49:52;;;;;;;4.50;4.10;;;;;;;;;;5057688;28;20493;-58
2020/12/31 13:52:18;;;;;;;4.50;4.07;;;;;;;;;;5054705;28;20754;-58
2020/12/31 13:54:44;;;;;;;4.60;4.20;;;;;;;;;;5070952;28;20427;-58
2020/12/31 13:57:10;;;;;;;5.10;4.53;;;;;;;;;;5059023;28;20191;-58
2020/12/31 13:59:36;;;;;;;4.40;4.00;;;;;;;;;;5061262;28;20510;-58
2020/12/31 14:02:02;;;;;;;4.90;4.40;;;;;;;;;;5066705;28;20472;-57
2020/12/31 14:04:28;;;;;;;4.37;3.97;;;;;;;;;;5046993;28;20419;-58
2020/12/31 14:06:54;;;;;;;4.83;4.33;;;;;;;;;;5074091;28;20220;-60
2020/12/31 14:09:20;;;;;;;4.60;4.20;;;;;;;;;;5073717;28;20961;-59
2020/12/31 14:11:53;;;;;;;4.30;3.93;;;;;;;;;;5044449;28;20930;-58
2020/12/31 14:14:19;;;;;;;4.20;3.80;;;;;;;;;;5073250;28;20439;-60
2020/12/31 14:16:45;;;;;;;4.37;3.97;;;;;;;;;;5055699;28;20414;-58
2020/12/31 14:19:11;;;;;;;4.37;3.97;;;;;;;;;;5068415;28;20427;-57
2020/12/31 14:21:37;;;;;;;4.67;4.27;;;;;;;;;;5074185;28;20420;-58
2020/12/31 14:24:03;;;;;;;4.23;3.83;;;;;;;;;;5055759;28;20473;-58
2020/12/31 14:26:29;;;;;;;4.50;4.10;;;;;;;;;;5052757;28;20900;-58
2020/12/31 14:28:55;;;;;;;4.27;3.87;;;;;;;;;;5073278;28;20507;-57
2020/12/31 14:31:21;;;;;;;4.50;4.03;;;;;;;;;;5053847;28;20192;-58
2020/12/31 14:33:48;;;;;;;4.30;3.90;;;;;;;;;;5053812;28;20555;-60
2020/12/31 14:36:14;;;;;;;4.97;4.47;;;;;;;;;;5067094;28;20419;-60
2020/12/31 14:38:40;;;;;;;4.40;4.00;;;;;;;;;;5073229;28;20571;-58
2020/12/31 14:41:06;;;;;;;6.23;5.17;;;;;;;;;;5036213;28;20419;-58
2020/12/31 14:43:32;;;;;;;4.67;4.10;;;;;;;;;;5053594;28;20407;-57